createdAt,value
2019-04-01T00:03:17.641Z,1.70
2019-04-01T00:08:22.823Z,1.53
2019-04-01T00:13:27.956Z,1.87
2019-04-01T00:18:32.769Z,1.53
2019-04-01T00:23:38.182Z,1.63
2019-04-01T00:28:43.605Z,1.40
2019-04-01T00:33:49.200Z,1.67
2019-04-01T00:38:54.359Z,1.60
2019-04-01T00:44:06.266Z,1.40
2019-04-01T00:49:11.393Z,1.40
2019-04-01T00:54:16.281Z,1.20
2019-04-01T00:59:21.073Z,1.33
2019-04-01T01:04:26.646Z,1.57
2019-04-01T01:09:31.869Z,1.10
2019-04-01T01:14:36.661Z,1.73
2019-04-01T01:19:42.039Z,1.60
2019-04-01T01:24:47.187Z,1.70
2019-04-01T01:29:52.381Z,1.77
2019-04-01T01:34:57.781Z,1.90
2019-04-01T01:40:03.020Z,1.53
2019-04-01T01:45:07.916Z,1.40
2019-04-01T01:50:12.788Z,1.40
2019-04-01T01:55:18.471Z,1.40
2019-04-01T02:00:24.962Z,1.70
2019-04-01T02:05:30.022Z,1.70
2019-04-01T02:10:35.152Z,1.57
2019-04-01T02:15:40.505Z,1.70
2019-04-01T02:20:45.573Z,1.63
2019-04-01T02:25:51.084Z,1.60
2019-04-01T02:30:56.419Z,2.00
2019-04-01T02:36:01.976Z,2.20
2019-04-01T02:41:07.223Z,1.80
2019-04-01T02:46:12.350Z,1.50
2019-04-01T02:51:17.554Z,1.53
2019-04-01T02:56:22.425Z,1.40
2019-04-01T03:01:27.840Z,2.00
2019-04-01T03:06:33.616Z,1.30
2019-04-01T03:11:38.824Z,2.00
2019-04-01T03:16:43.712Z,1.47
2019-04-01T03:21:48.842Z,1.70
2019-04-01T03:26:53.790Z,1.87
2019-04-01T03:31:59.457Z,1.73
2019-04-01T03:37:04.404Z,1.47
2019-04-01T03:42:10.148Z,1.37
2019-04-01T03:47:15.015Z,1.23
2019-04-01T03:52:20.772Z,1.00
2019-04-01T03:57:25.837Z,1.00
2019-04-01T04:02:30.762Z,1.30
2019-04-01T04:07:35.862Z,1.30
2019-04-01T04:12:41.233Z,1.30
2019-04-01T04:17:46.690Z,1.20
2019-04-01T04:22:51.811Z,1.43
2019-04-01T04:27:57.036Z,1.50
2019-04-01T04:33:02.143Z,1.43
2019-04-01T04:38:07.335Z,1.23
2019-04-01T04:43:12.518Z,1.00
2019-04-01T04:48:18.042Z,1.00
2019-04-01T04:53:23.422Z,1.00
2019-04-01T04:58:28.478Z,1.03
2019-04-01T05:03:33.920Z,1.10
2019-04-01T05:08:39.267Z,1.47
2019-04-01T05:13:44.499Z,1.40
2019-04-01T05:18:49.777Z,1.73
2019-04-01T05:23:56.110Z,1.50
2019-04-01T05:29:02.646Z,1.80
2019-04-01T05:34:10.356Z,1.30
2019-04-01T05:39:16.426Z,1.27
2019-04-01T05:44:21.824Z,3.37
2019-04-01T05:49:27.167Z,1.40
2019-04-01T05:54:32.609Z,1.27
2019-04-01T05:59:38.154Z,1.20
2019-04-01T06:04:43.933Z,1.93
2019-04-01T06:09:49.808Z,1.50
2019-04-01T06:14:54.769Z,1.63
2019-04-01T06:20:00.521Z,1.43
2019-04-01T06:25:06.086Z,1.80
2019-04-01T06:30:11.088Z,1.73
2019-04-01T06:35:15.944Z,1.70
2019-04-01T06:40:20.856Z,1.57
2019-04-01T06:45:25.749Z,1.60
2019-04-01T06:50:30.661Z,1.83
2019-04-01T06:55:35.791Z,1.83
2019-04-01T07:00:40.931Z,1.93
2019-04-01T07:05:46.159Z,1.40
2019-04-01T07:10:51.607Z,2.00
2019-04-01T07:15:57.232Z,2.00
2019-04-01T07:21:02.113Z,1.83
2019-04-01T07:26:07.268Z,1.63
2019-04-01T07:31:12.409Z,2.10
2019-04-01T07:36:17.645Z,2.10
2019-04-01T07:41:23.197Z,2.10
2019-04-01T07:46:28.105Z,2.17
2019-04-01T07:51:32.985Z,2.00
2019-04-01T07:56:38.233Z,2.60
2019-04-01T08:01:43.694Z,2.63
2019-04-01T08:06:48.873Z,2.53
2019-04-01T08:11:55.103Z,2.70
2019-04-01T08:17:00.255Z,3.17
2019-04-01T08:22:05.759Z,3.17
2019-04-01T08:27:11.258Z,3.43
2019-04-01T08:32:16.149Z,3.23
2019-04-01T08:37:21.315Z,3.13
2019-04-01T08:42:26.639Z,3.43
2019-04-01T08:47:35.106Z,3.70
2019-04-01T08:52:40.265Z,3.40
2019-04-01T08:57:45.176Z,4.50
2019-04-01T09:02:50.192Z,4.20
2019-04-01T09:07:55.094Z,3.83
2019-04-01T09:13:00.888Z,3.83
2019-04-01T09:18:05.925Z,3.70
2019-04-01T09:23:11.093Z,3.73
2019-04-01T09:28:16.009Z,4.40
2019-04-01T09:33:20.943Z,4.40
2019-04-01T09:38:25.910Z,3.90
2019-04-01T09:43:30.894Z,4.87
2019-04-01T09:48:35.954Z,4.77
2019-04-01T09:53:41.110Z,5.07
2019-04-01T09:58:45.996Z,5.93
2019-04-01T10:03:51.390Z,4.60
2019-04-01T10:08:56.269Z,4.90
2019-04-01T10:14:01.422Z,5.23
2019-04-01T10:19:06.594Z,5.40
2019-04-01T10:24:11.761Z,5.97
2019-04-01T10:29:16.718Z,5.90
2019-04-01T10:34:21.633Z,5.27
2019-04-01T10:39:26.563Z,6.77
2019-04-01T10:44:31.833Z,6.07
2019-04-01T10:49:37.095Z,6.50
2019-04-01T10:54:42.069Z,6.80
2019-04-01T10:59:47.035Z,7.17
2019-04-01T11:04:52.559Z,6.97
2019-04-01T11:09:57.757Z,7.27
2019-04-01T11:15:02.944Z,6.83
2019-04-01T11:20:09.246Z,7.30
2019-04-01T11:25:14.570Z,6.93
2019-04-01T11:30:20.261Z,8.03
2019-04-01T11:35:25.440Z,8.23
2019-04-01T11:40:30.793Z,8.47
2019-04-01T11:45:36.427Z,7.67
2019-04-01T11:50:41.412Z,7.93
2019-04-01T11:55:46.343Z,8.07
2019-04-01T12:00:51.447Z,8.60
2019-04-01T12:05:56.641Z,9.20
2019-04-01T12:11:02.085Z,9.10
2019-04-01T12:16:07.199Z,8.17
2019-04-01T12:21:12.485Z,8.40
2019-04-01T12:26:17.724Z,9.63
2019-04-01T12:31:22.926Z,9.63
2019-04-01T12:36:27.820Z,9.23
2019-04-01T12:41:33.493Z,9.17
2019-04-01T12:46:38.666Z,9.03
2019-04-01T12:51:43.579Z,9.47
2019-04-01T12:56:48.532Z,8.73
2019-04-01T13:01:53.808Z,10.13
2019-04-01T13:06:58.794Z,9.57
2019-04-01T13:12:03.806Z,8.63
2019-04-01T13:17:08.972Z,8.87
2019-04-01T13:22:13.888Z,11.07
2019-04-01T13:27:19.097Z,10.37
2019-04-01T13:32:23.988Z,11.17
2019-04-01T13:37:29.689Z,9.90
2019-04-01T13:42:34.601Z,10.83
2019-04-01T13:47:41.428Z,11.13
2019-04-01T13:52:46.793Z,10.07
2019-04-01T13:57:51.589Z,9.33
2019-04-01T14:02:56.808Z,10.20
2019-04-01T14:08:05.617Z,11.43
2019-04-01T14:13:09.147Z,10.83
2019-04-01T14:18:14.050Z,10.03
2019-04-01T14:23:19.224Z,9.63
2019-04-01T14:28:24.261Z,9.83
2019-04-01T14:33:32.408Z,8.07
2019-04-01T14:38:36.618Z,8.07
2019-04-01T14:43:41.512Z,8.77
2019-04-01T14:48:46.862Z,9.47
2019-04-01T14:53:51.782Z,8.30
2019-04-01T14:58:56.787Z,9.80
2019-04-01T15:04:01.953Z,8.27
2019-04-01T15:09:08.413Z,9.43
2019-04-01T15:14:13.294Z,10.27
2019-04-01T15:19:18.489Z,9.20
2019-04-01T15:24:23.869Z,8.70
2019-04-01T15:29:29.241Z,7.57
2019-04-01T15:34:34.356Z,9.77
2019-04-01T15:39:39.618Z,8.60
2019-04-01T15:44:45.000Z,7.77
2019-04-01T15:49:50.077Z,8.43
2019-04-01T15:54:57.883Z,7.90
2019-04-01T16:00:03.266Z,9.37
2019-04-01T16:05:08.725Z,8.10
2019-04-01T16:10:14.255Z,8.03
2019-04-01T16:15:19.157Z,7.87
2019-04-01T16:20:25.971Z,7.57
2019-04-01T16:25:30.902Z,8.90
2019-04-01T16:30:35.967Z,8.00
2019-04-01T16:35:41.179Z,7.83
2019-04-01T16:40:47.049Z,7.77
2019-04-01T16:45:56.014Z,7.20
2019-04-01T16:51:00.957Z,6.67
2019-04-01T16:56:05.968Z,7.23
2019-04-01T17:01:11.265Z,6.60
2019-04-01T17:06:16.664Z,6.20
2019-04-01T17:11:22.143Z,5.30
2019-04-01T17:16:27.148Z,5.87
2019-04-01T17:21:33.211Z,6.40
2019-04-01T17:27:13.536Z,6.40
2019-04-01T17:32:18.700Z,6.00
2019-04-01T17:37:23.590Z,5.50
2019-04-01T17:42:29.101Z,5.93
2019-04-01T17:47:34.456Z,5.90
2019-04-01T17:52:40.537Z,5.07
2019-04-01T17:57:46.238Z,5.30
2019-04-01T18:02:51.470Z,5.33
2019-04-01T18:07:56.378Z,4.73
2019-04-01T18:13:01.502Z,5.00
2019-04-01T18:18:06.791Z,6.20
2019-04-01T18:23:12.214Z,5.07
2019-04-01T18:28:17.269Z,5.23
2019-04-01T18:33:22.764Z,4.97
2019-04-01T18:38:27.574Z,5.70
2019-04-01T18:43:32.731Z,5.67
2019-04-01T18:48:37.609Z,5.97
2019-04-01T18:53:42.808Z,5.53
2019-04-01T18:58:48.077Z,5.43
2019-04-01T19:03:53.348Z,5.87
2019-04-01T19:09:08.671Z,5.43
2019-04-01T19:14:08.435Z,5.63
2019-04-01T19:19:13.457Z,5.63
2019-04-01T19:24:19.193Z,5.27
2019-04-01T19:29:24.390Z,5.40
2019-04-01T19:34:30.018Z,4.93
2019-04-01T19:39:35.399Z,5.20
2019-04-01T19:44:42.238Z,5.57
2019-04-01T19:49:48.165Z,5.40
2019-04-01T19:54:53.724Z,7.07
2019-04-01T19:59:59.840Z,7.60
2019-04-01T20:05:04.916Z,5.90
2019-04-01T20:10:09.809Z,5.50
2019-04-01T20:15:17.387Z,5.30
2019-04-01T20:20:22.373Z,5.30
2019-04-01T20:25:27.369Z,6.97
2019-04-01T20:30:32.379Z,6.13
2019-04-01T20:35:37.541Z,6.23
2019-04-01T20:40:42.680Z,5.77
2019-04-01T20:45:47.586Z,6.17
2019-04-01T20:50:55.047Z,6.20
2019-04-01T20:56:00.382Z,5.40
2019-04-01T21:01:07.025Z,6.03
2019-04-01T21:06:12.137Z,6.33
2019-04-01T21:11:17.251Z,6.27
2019-04-01T21:16:22.444Z,6.43
2019-04-01T21:21:27.612Z,6.40
2019-04-01T21:26:33.266Z,7.40
2019-04-01T21:31:38.857Z,6.83
2019-04-01T21:36:43.957Z,7.67
2019-04-01T21:41:49.134Z,8.73
2019-04-01T21:46:54.681Z,7.50
2019-04-01T21:52:02.048Z,8.27
2019-04-01T21:57:06.489Z,8.37
2019-04-01T22:02:11.747Z,8.27
2019-04-01T22:07:16.987Z,8.17
2019-04-01T22:12:22.464Z,8.00
2019-04-01T22:17:27.685Z,8.53
2019-04-01T22:22:32.646Z,8.63
2019-04-01T22:27:37.514Z,8.60
2019-04-01T22:32:42.578Z,8.90
2019-04-01T22:37:48.106Z,7.90
2019-04-01T22:42:53.249Z,7.33
2019-04-01T22:47:59.110Z,7.60
2019-04-01T22:53:04.876Z,8.03
2019-04-01T22:58:10.097Z,7.67
2019-04-01T23:03:15.877Z,7.07
2019-04-01T23:08:21.265Z,8.07
2019-04-01T23:13:26.728Z,6.87
2019-04-01T23:18:31.950Z,8.20
2019-04-01T23:23:37.633Z,7.80
2019-04-01T23:28:42.793Z,8.17
2019-04-01T23:33:48.022Z,8.07
2019-04-01T23:38:52.944Z,7.90
2019-04-01T23:43:58.017Z,8.17
2019-04-01T23:49:02.893Z,9.10
2019-04-01T23:54:07.806Z,7.37
2019-04-01T23:59:12.765Z,8.50
